Caseville, Michigan
Current Conditions -  °F | °C
As of 11:14 AM on Monday 26 Jan 2015 (Local Time) from KBAX Reporting Station
Overcast Overcast  
Wind Chill:   Ceiling: 1800
Heat Index: 17°   Visibility: 10mi
Dew Point: 13°   Wind: 6mph
Humidity: 83%   Direction: 60°ENE
Pressure: 29.98"   Gusts: NA
Location:  43.94°N, 83.27°W
Report Text: KBAX 261614Z AUTO 06005KT 10SM OVC018 M08/M11 A2998 RMK AO2 T10811106
Loading
Personal Weather Stations






























Interactive Weather Map New forecast layout! Learn more

10-Day Weather Forecast

Advertisements
Track Severe Weather on mobile